createdAt,value
2023-03-03T00:02:25.515Z,101137.20
2023-03-03T00:04:55.369Z,101139.65
2023-03-03T00:07:23.952Z,101139.91
2023-03-03T00:09:52.761Z,101134.94
2023-03-03T00:12:29.835Z,101135.23
2023-03-03T00:14:58.815Z,101142.02
2023-03-03T00:17:30.037Z,101134.45
2023-03-03T00:19:59.575Z,101133.84
2023-03-03T00:22:38.274Z,101132.11
2023-03-03T00:25:30.485Z,101136.02
2023-03-03T00:28:16.286Z,101144.50
2023-03-03T00:30:44.743Z,101137.27
2023-03-03T00:33:20.650Z,101132.04
2023-03-03T00:35:52.434Z,101135.13
2023-03-03T00:38:23.052Z,101128.05
2023-03-03T00:40:51.580Z,101125.81
2023-03-03T00:43:23.125Z,101124.50
2023-03-03T00:45:58.777Z,101123.63
2023-03-03T00:48:29.057Z,101123.66
2023-03-03T00:51:01.157Z,101122.59
2023-03-03T00:53:30.666Z,101129.17
2023-03-03T00:55:59.231Z,101122.90
2023-03-03T00:58:29.921Z,101126.18
2023-03-03T01:00:59.133Z,101122.09
2023-03-03T01:03:44.165Z,101131.41
2023-03-03T01:06:13.000Z,101124.98
2023-03-03T01:14:12.729Z,101174.05
2023-03-03T01:16:41.949Z,101144.24
2023-03-03T01:19:10.602Z,101145.58
2023-03-03T01:21:40.301Z,101146.39
2023-03-03T01:24:10.942Z,101146.69
2023-03-03T01:26:41.018Z,101153.69
2023-03-03T01:29:10.647Z,101151.38
2023-03-03T01:31:40.855Z,101150.73
2023-03-03T01:34:09.329Z,101148.48
2023-03-03T01:36:37.790Z,101147.75
2023-03-03T01:39:06.207Z,101140.04
2023-03-03T01:41:35.184Z,101142.02
2023-03-03T01:44:04.839Z,101138.00
2023-03-03T01:47:13.054Z,101139.52
2023-03-03T01:49:59.216Z,101147.04
2023-03-03T01:52:39.857Z,101144.04
2023-03-03T01:55:18.599Z,101138.23
2023-03-03T01:58:02.971Z,101138.70
2023-03-03T02:00:32.462Z,101138.45
2023-03-03T02:03:01.140Z,101132.66
2023-03-03T02:05:29.716Z,101130.09
2023-03-03T02:07:58.120Z,101131.55
2023-03-03T02:10:29.709Z,101129.11
2023-03-03T02:12:58.584Z,101129.30
2023-03-03T02:15:37.515Z,101120.16
2023-03-03T02:18:13.816Z,101122.77
2023-03-03T02:20:45.938Z,101121.61
2023-03-03T02:23:36.342Z,101122.52
2023-03-03T02:26:13.536Z,101127.95
2023-03-03T02:28:43.406Z,101118.67
2023-03-03T02:31:14.549Z,101119.45
2023-03-03T02:33:51.356Z,101124.08
2023-03-03T02:36:24.548Z,101125.70
2023-03-03T02:39:05.625Z,101124.64
2023-03-03T02:41:34.195Z,101122.90
2023-03-03T02:44:14.025Z,101118.70
2023-03-03T02:46:46.453Z,101123.85
2023-03-03T02:49:17.228Z,101118.23
2023-03-03T02:51:45.849Z,101117.85
2023-03-03T02:54:15.946Z,101120.70
2023-03-03T02:56:44.622Z,101115.98
2023-03-03T02:59:13.485Z,101120.91
2023-03-03T03:01:47.557Z,101117.88
2023-03-03T03:04:20.344Z,101117.29
2023-03-03T03:06:51.479Z,101111.02
2023-03-03T03:09:21.148Z,101108.34
2023-03-03T03:11:50.584Z,101110.21
2023-03-03T03:14:25.997Z,101101.89
2023-03-03T03:16:55.646Z,101104.16
2023-03-03T03:19:24.596Z,101103.80
2023-03-03T03:21:53.168Z,101101.41
2023-03-03T03:24:22.275Z,101098.64
2023-03-03T03:26:56.377Z,101099.77
2023-03-03T03:29:25.418Z,101097.75
2023-03-03T03:31:54.587Z,101094.60
2023-03-03T03:34:23.173Z,101090.23
2023-03-03T03:36:56.873Z,101086.73
2023-03-03T03:39:45.772Z,101090.68
2023-03-03T03:42:14.821Z,101090.21
2023-03-03T03:44:44.438Z,101087.79
2023-03-03T03:47:18.138Z,101086.91
2023-03-03T03:49:46.980Z,101085.04
2023-03-03T03:52:15.868Z,101078.10
2023-03-03T03:54:45.004Z,101079.66
2023-03-03T03:57:14.548Z,101077.16
2023-03-03T04:00:02.922Z,101077.48
2023-03-03T04:02:44.268Z,101079.07
2023-03-03T04:05:14.704Z,101076.95
2023-03-03T04:07:43.238Z,101081.16
2023-03-03T04:10:13.171Z,101086.20
2023-03-03T04:12:41.840Z,101089.11
2023-03-03T04:15:16.517Z,101088.83
2023-03-03T04:17:47.678Z,101089.63
2023-03-03T04:20:16.935Z,101088.13
2023-03-03T04:22:48.344Z,101090.20
2023-03-03T04:25:17.703Z,101091.34
2023-03-03T04:27:51.497Z,101091.91
2023-03-03T04:30:22.791Z,101093.85
2023-03-03T04:32:53.529Z,101094.79
2023-03-03T04:35:23.732Z,101094.46
2023-03-03T04:37:52.274Z,101095.09
2023-03-03T04:40:21.749Z,101091.98
2023-03-03T04:42:51.205Z,101090.48
2023-03-03T04:45:23.821Z,101087.38
2023-03-03T04:47:52.555Z,101090.74
2023-03-03T04:50:25.142Z,101092.19
2023-03-03T04:52:55.576Z,101094.86
2023-03-03T04:55:24.202Z,101095.19
2023-03-03T04:57:55.592Z,101094.16
2023-03-03T05:00:24.516Z,101095.66
2023-03-03T05:02:52.965Z,101089.48
2023-03-03T05:05:21.623Z,101091.32
2023-03-03T05:07:52.094Z,101093.71
2023-03-03T05:10:21.098Z,101095.79
2023-03-03T05:12:49.511Z,101098.73
2023-03-03T05:15:19.680Z,101098.10
2023-03-03T05:17:49.284Z,101098.95
2023-03-03T05:20:20.818Z,101095.63
2023-03-03T05:22:49.292Z,101096.68
2023-03-03T05:25:17.994Z,101096.78
2023-03-03T05:27:46.748Z,101097.05
2023-03-03T05:30:15.280Z,101097.73
2023-03-03T05:32:47.061Z,101097.45
2023-03-03T05:35:16.245Z,101091.79
2023-03-03T05:37:47.995Z,101096.95
2023-03-03T05:40:16.867Z,101089.88
2023-03-03T05:42:45.816Z,101088.11
2023-03-03T05:45:14.396Z,101089.63
2023-03-03T05:47:42.930Z,101087.42
2023-03-03T05:50:12.515Z,101087.02
2023-03-03T05:52:41.093Z,101083.47
2023-03-03T05:55:12.147Z,101083.77
2023-03-03T05:57:42.450Z,101079.38
2023-03-03T06:00:12.263Z,101080.89
2023-03-03T06:02:41.827Z,101078.80
2023-03-03T06:05:12.176Z,101078.38
2023-03-03T06:07:43.257Z,101078.22
2023-03-03T06:10:11.988Z,101077.43
2023-03-03T06:12:49.341Z,101076.42
2023-03-03T06:15:18.172Z,101075.95
2023-03-03T06:17:50.116Z,101072.24
2023-03-03T06:20:18.679Z,101073.67
2023-03-03T06:22:47.106Z,101076.89
2023-03-03T06:25:16.186Z,101077.48
2023-03-03T06:27:47.353Z,101073.77
2023-03-03T06:30:19.167Z,101068.58
2023-03-03T06:32:47.839Z,101073.59
2023-03-03T06:35:18.531Z,101069.51
2023-03-03T06:37:47.251Z,101064.48
2023-03-03T06:40:15.771Z,101068.13
2023-03-03T06:42:46.055Z,101068.73
2023-03-03T06:45:14.931Z,101071.30
2023-03-03T06:47:43.371Z,101070.16
2023-03-03T06:50:12.970Z,101071.42
2023-03-03T06:52:41.506Z,101070.95
2023-03-03T06:55:15.813Z,101072.65
2023-03-03T06:57:45.029Z,101069.33
2023-03-03T07:00:20.495Z,101073.96
2023-03-03T07:03:16.259Z,101068.23
2023-03-03T07:05:45.383Z,101067.28
2023-03-03T07:08:20.210Z,101069.27
2023-03-03T07:10:55.785Z,101068.40
2023-03-03T07:13:28.876Z,101070.30
2023-03-03T07:15:59.697Z,101068.05
2023-03-03T07:18:57.639Z,101075.28
2023-03-03T07:21:36.892Z,101063.34
2023-03-03T07:24:27.144Z,101067.86
2023-03-03T07:27:02.820Z,101063.59
2023-03-03T07:29:31.458Z,101070.45
2023-03-03T07:32:01.268Z,101071.48
2023-03-03T07:34:30.568Z,101068.70
2023-03-03T07:37:32.058Z,101066.30
2023-03-03T07:40:01.327Z,101061.37
2023-03-03T07:42:35.827Z,101070.70
2023-03-03T07:45:30.921Z,101072.80
2023-03-03T07:48:24.672Z,101065.70
2023-03-03T07:50:53.890Z,101063.61
2023-03-03T07:53:26.468Z,101066.95
2023-03-03T07:55:54.958Z,101070.16
2023-03-03T07:58:28.090Z,101070.88
2023-03-03T08:01:15.734Z,101071.93
2023-03-03T08:03:45.811Z,101068.69
2023-03-03T08:06:24.189Z,101071.80
2023-03-03T08:08:53.238Z,101064.36
2023-03-03T08:11:21.754Z,101067.85
2023-03-03T08:13:50.940Z,101070.84
2023-03-03T08:16:35.654Z,101066.17
2023-03-03T08:19:05.904Z,101061.63
2023-03-03T08:21:34.714Z,101059.16
2023-03-03T08:24:07.564Z,101056.92
2023-03-03T08:26:36.092Z,101061.72
2023-03-03T08:29:04.629Z,101053.89
2023-03-03T08:31:41.190Z,101052.45
2023-03-03T08:34:10.332Z,101053.35
2023-03-03T08:36:42.720Z,101050.67
2023-03-03T08:39:11.971Z,101046.19
2023-03-03T08:41:44.042Z,101047.52
2023-03-03T08:44:12.489Z,101047.16
2023-03-03T08:46:41.854Z,101042.93
2023-03-03T08:49:13.504Z,101044.07
2023-03-03T08:51:43.846Z,101041.45
2023-03-03T08:54:12.558Z,101045.48
2023-03-03T08:56:42.005Z,101044.92
2023-03-03T08:59:13.420Z,101041.17
2023-03-03T09:01:45.065Z,101038.55
2023-03-03T09:04:14.255Z,101036.09
2023-03-03T09:06:44.324Z,101031.90
2023-03-03T09:09:13.558Z,101028.85
2023-03-03T09:12:00.403Z,101027.49
2023-03-03T09:14:31.217Z,101024.97
2023-03-03T09:17:00.603Z,101022.15
2023-03-03T09:19:35.443Z,101015.55
2023-03-03T09:22:28.944Z,101008.34
2023-03-03T09:25:00.809Z,101009.30
2023-03-03T09:27:30.614Z,101009.44
2023-03-03T09:30:21.240Z,101010.39
2023-03-03T09:32:49.790Z,101007.05
2023-03-03T09:35:37.862Z,101001.48
2023-03-03T09:38:28.268Z,100997.17
2023-03-03T09:41:19.865Z,100989.09
2023-03-03T09:44:33.834Z,100981.76
2023-03-03T09:47:23.477Z,100974.67
2023-03-03T09:50:10.920Z,100970.60
2023-03-03T09:52:40.000Z,100966.20
2023-03-03T09:55:35.914Z,100962.80
2023-03-03T09:59:16.683Z,100958.52
2023-03-03T10:01:54.728Z,100953.62
2023-03-03T10:04:32.435Z,100946.02
2023-03-03T10:07:22.499Z,100941.86
2023-03-03T10:09:51.073Z,100938.71
2023-03-03T10:12:48.695Z,100933.28
2023-03-03T10:15:30.758Z,100927.16
2023-03-03T10:18:18.142Z,100921.17
2023-03-03T10:20:55.829Z,100912.19
2023-03-03T10:23:46.555Z,100904.52
2023-03-03T10:26:44.865Z,100895.88
2023-03-03T10:29:34.388Z,100892.27
2023-03-03T10:32:03.208Z,100888.48
2023-03-03T10:34:59.751Z,100880.51
2023-03-03T10:37:52.402Z,100890.91
2023-03-03T10:40:28.919Z,100879.81
2023-03-03T10:43:08.070Z,100873.95
2023-03-03T10:45:39.922Z,100862.67
2023-03-03T10:48:27.104Z,100855.91
2023-03-03T10:51:16.799Z,100847.89
2023-03-03T10:54:00.959Z,100840.73
2023-03-03T10:56:52.399Z,100835.02
2023-03-03T10:59:47.376Z,100831.54
2023-03-03T11:02:32.604Z,100826.66
2023-03-03T11:05:22.876Z,100823.45
2023-03-03T11:08:23.734Z,100816.47
2023-03-03T11:11:00.777Z,100815.78
2023-03-03T11:13:37.065Z,100812.09
2023-03-03T11:16:06.761Z,100804.95
2023-03-03T11:18:46.222Z,100797.77
2023-03-03T11:21:24.340Z,100798.85
2023-03-03T11:23:56.102Z,100788.45
2023-03-03T11:26:54.048Z,100787.86
2023-03-03T11:29:59.813Z,100787.00
2023-03-03T11:32:34.679Z,100784.75
2023-03-03T11:35:16.114Z,100770.68
2023-03-03T11:38:03.908Z,100772.07
2023-03-03T11:40:42.840Z,100772.29
2023-03-03T11:43:48.149Z,100761.34
2023-03-03T11:46:30.994Z,100761.80
2023-03-03T11:49:22.797Z,100760.77
2023-03-03T11:51:59.290Z,100760.48
2023-03-03T11:54:31.826Z,100753.77
2023-03-03T11:57:32.446Z,100752.85
2023-03-03T12:00:29.156Z,100755.88
2023-03-03T12:03:16.118Z,100750.23
2023-03-03T12:06:13.134Z,100746.08
2023-03-03T12:08:42.140Z,100745.38
2023-03-03T12:11:27.960Z,100738.16
2023-03-03T12:14:04.376Z,100737.16
2023-03-03T12:16:45.887Z,100734.44
2023-03-03T12:19:52.427Z,100735.90
2023-03-03T12:22:50.424Z,100735.08
2023-03-03T12:25:31.987Z,100731.44
2023-03-03T12:28:01.796Z,100723.85
2023-03-03T12:30:57.216Z,100723.73
2023-03-03T12:33:44.524Z,100722.91
2023-03-03T12:36:37.327Z,100720.83
2023-03-03T12:39:12.003Z,100716.08
2023-03-03T12:41:51.814Z,100709.45
2023-03-03T12:44:25.615Z,100706.92
2023-03-03T12:47:04.834Z,100699.08
2023-03-03T12:50:10.365Z,100699.23
2023-03-03T12:52:58.728Z,100691.36
2023-03-03T12:55:55.438Z,100680.83
2023-03-03T12:58:42.343Z,100670.85
2023-03-03T13:01:28.681Z,100651.92
2023-03-03T13:04:06.136Z,100610.22
2023-03-03T13:06:53.269Z,100558.18
2023-03-03T13:09:37.656Z,100485.48
2023-03-03T13:12:13.989Z,100417.00
2023-03-03T13:14:59.290Z,100371.20
2023-03-03T13:17:32.134Z,100303.11
2023-03-03T13:20:03.484Z,100256.52
2023-03-03T13:23:14.060Z,100220.70
2023-03-03T13:25:46.635Z,100168.55
2023-03-03T13:28:16.068Z,100163.69
2023-03-03T13:30:49.234Z,100154.10
2023-03-03T13:33:22.945Z,100141.02
2023-03-03T13:35:57.205Z,100125.17
2023-03-03T13:38:31.329Z,100104.07
2023-03-03T13:41:21.639Z,100088.30
2023-03-03T13:44:17.424Z,100067.59
2023-03-03T13:46:57.775Z,100053.64
2023-03-03T13:49:55.608Z,100052.73
2023-03-03T13:52:27.168Z,100035.27
2023-03-03T13:55:07.608Z,100038.44
2023-03-03T13:58:01.183Z,100026.23
2023-03-03T14:00:55.058Z,100011.66
2023-03-03T14:03:29.768Z,100000.20
2023-03-03T14:06:04.648Z,99990.74
2023-03-03T14:08:54.994Z,99981.28
2023-03-03T14:11:28.155Z,99967.38
2023-03-03T14:14:47.094Z,99978.08
2023-03-03T14:17:23.929Z,99943.27
2023-03-03T14:20:03.240Z,99942.13
2023-03-03T14:22:51.475Z,99923.57
2023-03-03T14:25:20.441Z,99910.77
2023-03-03T14:27:49.172Z,99907.70
2023-03-03T14:30:30.001Z,99893.33
2023-03-03T14:33:07.834Z,99881.87
2023-03-03T14:35:56.763Z,99876.59
2023-03-03T14:38:31.822Z,99868.68
2023-03-03T14:41:10.294Z,99868.98
2023-03-03T14:44:06.905Z,99864.13
2023-03-03T14:46:40.585Z,99854.59
2023-03-03T14:49:36.725Z,99856.77
2023-03-03T14:52:17.702Z,99828.60
2023-03-03T14:54:50.797Z,99829.98
2023-03-03T14:57:20.269Z,99825.88
2023-03-03T15:00:24.499Z,99827.14
2023-03-03T15:02:53.062Z,99804.08
2023-03-03T15:05:26.352Z,99811.70
2023-03-03T15:08:05.102Z,99804.46
2023-03-03T15:10:38.586Z,99794.27
2023-03-03T15:13:21.788Z,99793.07
2023-03-03T15:16:00.649Z,99787.66
2023-03-03T15:18:36.987Z,99785.22
2023-03-03T15:21:08.057Z,99788.73
2023-03-03T15:23:48.836Z,99787.88
2023-03-03T15:26:25.210Z,99779.70
2023-03-03T15:28:56.487Z,99781.83
2023-03-03T15:31:35.312Z,99784.48
2023-03-03T15:34:45.476Z,99777.73
2023-03-03T15:37:55.614Z,99761.44
2023-03-03T15:40:34.132Z,99765.27
2023-03-03T15:43:21.588Z,99775.02
2023-03-03T15:45:56.173Z,99769.30
2023-03-03T15:48:50.559Z,99771.74
2023-03-03T15:51:39.169Z,99758.48
2023-03-03T15:54:41.692Z,99753.93
2023-03-03T15:57:16.751Z,99743.38
2023-03-03T15:59:51.291Z,99753.30
2023-03-03T16:02:28.652Z,99749.05
2023-03-03T16:05:02.123Z,99749.91
2023-03-03T16:07:45.781Z,99753.46
2023-03-03T16:10:42.762Z,99742.84
2023-03-03T16:13:20.181Z,99736.80
2023-03-03T16:16:24.117Z,99743.55
2023-03-03T16:18:58.711Z,99725.73
2023-03-03T16:22:06.459Z,99730.88
2023-03-03T16:25:13.163Z,99708.80
2023-03-03T16:28:04.831Z,99683.31
2023-03-03T16:30:58.391Z,99680.57
2023-03-03T16:33:37.263Z,99680.88
2023-03-03T16:36:19.058Z,99686.89
2023-03-03T16:39:00.533Z,99682.23
2023-03-03T16:41:50.565Z,99680.66
2023-03-03T16:44:44.090Z,99674.48
2023-03-03T16:47:28.069Z,99671.05
2023-03-03T16:50:34.798Z,99665.86
2023-03-03T16:53:40.565Z,99649.31
2023-03-03T16:56:25.014Z,99642.18
2023-03-03T16:59:36.863Z,99642.19
2023-03-03T17:02:30.733Z,99630.33
2023-03-03T17:05:05.211Z,99630.35
2023-03-03T17:07:45.547Z,99633.71
2023-03-03T17:10:53.261Z,99630.34
2023-03-03T17:13:58.867Z,99616.45
2023-03-03T17:16:53.344Z,99617.18
2023-03-03T17:19:30.539Z,99612.98
2023-03-03T17:22:10.498Z,99616.05
2023-03-03T17:24:52.937Z,99609.80
2023-03-03T17:27:56.967Z,99604.85
2023-03-03T17:30:27.236Z,99588.87
2023-03-03T17:33:19.904Z,99603.28
2023-03-03T17:36:00.515Z,99586.13
2023-03-03T17:38:50.744Z,99589.60
2023-03-03T17:41:31.364Z,99579.80
2023-03-03T17:44:01.044Z,99574.11
2023-03-03T17:46:34.404Z,99576.71
2023-03-03T17:49:09.217Z,99568.95
2023-03-03T17:52:07.532Z,99561.69
2023-03-03T17:54:39.153Z,99541.98
2023-03-03T17:57:21.446Z,99542.42
2023-03-03T18:00:21.310Z,99524.45
2023-03-03T18:03:05.297Z,99508.77
2023-03-03T18:05:42.830Z,99501.21
2023-03-03T18:08:33.199Z,99337.98
2023-03-03T18:11:07.720Z,99136.21
2023-03-03T18:14:07.524Z,99124.89
2023-03-03T18:17:09.405Z,99094.45
2023-03-03T18:20:16.638Z,99065.80
2023-03-03T18:22:46.661Z,99043.45
2023-03-03T18:25:36.515Z,99035.60
2023-03-03T18:28:04.896Z,99007.19
2023-03-03T18:30:59.363Z,98994.22
2023-03-03T18:34:05.886Z,98963.04
2023-03-03T18:36:37.785Z,98940.95
2023-03-03T18:39:06.889Z,98930.96
2023-03-03T18:42:31.267Z,98925.56
2023-03-03T18:45:30.511Z,98906.94
2023-03-03T18:48:08.330Z,98888.36
2023-03-03T18:50:39.143Z,98877.17
2023-03-03T18:53:25.040Z,98863.24
2023-03-03T18:55:57.830Z,98843.89
2023-03-03T18:58:29.316Z,98831.44
2023-03-03T19:01:36.360Z,98822.15
2023-03-03T19:04:16.544Z,98796.18
2023-03-03T19:06:50.035Z,98785.42
2023-03-03T19:09:50.783Z,98767.73
2023-03-03T19:12:49.732Z,98750.19
2023-03-03T19:15:34.130Z,98739.56
2023-03-03T19:18:22.402Z,98724.66
2023-03-03T19:21:34.091Z,98712.27
2023-03-03T19:24:21.813Z,98699.81
2023-03-03T19:27:14.126Z,98687.48
2023-03-03T19:29:45.703Z,98679.58
2023-03-03T19:32:16.965Z,98676.40
2023-03-03T19:35:15.656Z,98667.42
2023-03-03T19:37:58.180Z,98659.10
2023-03-03T19:40:52.246Z,98653.72
2023-03-03T19:43:35.444Z,98650.04
2023-03-03T19:46:31.447Z,98642.63
2023-03-03T19:49:11.926Z,98635.07
2023-03-03T19:51:55.738Z,98639.02
2023-03-03T19:54:30.284Z,98641.02
2023-03-03T19:56:58.946Z,98641.81
2023-03-03T19:59:42.291Z,98645.38
2023-03-03T20:02:30.646Z,98642.23
2023-03-03T20:05:22.573Z,98644.84
2023-03-03T20:08:04.930Z,98641.27
2023-03-03T20:11:07.409Z,98634.42
2023-03-03T20:13:49.000Z,98631.16
2023-03-03T20:16:23.502Z,98626.55
2023-03-03T20:19:15.464Z,98626.57
2023-03-03T20:21:48.025Z,98620.55
2023-03-03T20:24:33.696Z,98619.91
2023-03-03T20:27:23.438Z,98617.67
2023-03-03T20:30:28.989Z,98614.89
2023-03-03T20:33:04.377Z,98604.88
2023-03-03T20:36:08.585Z,98601.20
2023-03-03T20:38:58.881Z,98595.33
2023-03-03T20:41:49.603Z,98591.34
2023-03-03T20:44:34.136Z,98588.88
2023-03-03T20:47:19.272Z,98585.91
2023-03-03T20:50:37.843Z,98584.13
2023-03-03T20:53:09.524Z,98580.17
2023-03-03T20:55:42.771Z,98575.09
2023-03-03T20:58:25.197Z,98570.24
2023-03-03T21:01:10.123Z,98568.76
2023-03-03T21:03:40.008Z,98565.77
2023-03-03T21:06:09.698Z,98563.91
2023-03-03T21:08:55.407Z,98557.86
2023-03-03T21:11:31.583Z,98556.97
2023-03-03T21:14:01.855Z,98555.80
2023-03-03T21:16:32.466Z,98551.36
2023-03-03T21:19:03.420Z,98547.39
2023-03-03T21:21:40.164Z,98545.11
2023-03-03T21:24:13.387Z,98537.17
2023-03-03T21:26:52.343Z,98531.17
2023-03-03T21:29:32.511Z,98532.91
2023-03-03T21:32:03.039Z,98532.61
2023-03-03T21:34:33.793Z,98529.91
2023-03-03T21:37:07.061Z,98525.82
2023-03-03T21:39:40.084Z,98523.08
2023-03-03T21:42:16.411Z,98522.14
2023-03-03T21:44:50.097Z,98518.47
2023-03-03T21:47:20.678Z,98510.85
2023-03-03T21:50:00.790Z,98507.27
2023-03-03T21:52:29.443Z,98502.58
2023-03-03T21:54:58.219Z,98501.62
2023-03-03T21:57:27.076Z,98497.30
2023-03-03T21:59:57.827Z,98493.47
2023-03-03T22:02:26.563Z,98488.70
2023-03-03T22:04:55.280Z,98487.06
2023-03-03T22:07:23.825Z,98486.20
2023-03-03T22:09:53.583Z,98482.34
2023-03-03T22:12:22.191Z,98478.19
2023-03-03T22:14:56.138Z,98468.18
2023-03-03T22:17:25.824Z,98466.67
2023-03-03T22:19:55.852Z,98466.05
2023-03-03T22:22:24.733Z,98464.17
2023-03-03T22:24:54.125Z,98462.93
2023-03-03T22:27:24.028Z,98458.44
2023-03-03T22:29:52.446Z,98455.32
2023-03-03T22:32:21.019Z,98457.18
2023-03-03T22:34:51.008Z,98452.75
2023-03-03T22:37:19.617Z,98452.15
2023-03-03T22:39:48.620Z,98444.02
2023-03-03T22:42:17.069Z,98438.61
2023-03-03T22:44:49.110Z,98436.31
2023-03-03T22:47:17.958Z,98434.23
2023-03-03T22:49:46.473Z,98432.75
2023-03-03T22:52:14.879Z,98431.92
2023-03-03T22:54:44.403Z,98434.42
2023-03-03T22:57:13.283Z,98436.95
2023-03-03T22:59:41.757Z,98439.95
2023-03-03T23:02:10.167Z,98439.88
2023-03-03T23:04:39.466Z,98441.05
2023-03-03T23:07:08.190Z,98436.26
2023-03-03T23:09:41.213Z,98438.30
2023-03-03T23:12:18.099Z,98434.23
2023-03-03T23:14:47.765Z,98434.17
2023-03-03T23:17:16.315Z,98431.31
2023-03-03T23:19:46.466Z,98431.81
2023-03-03T23:22:16.498Z,98426.67
2023-03-03T23:24:44.884Z,98418.81
2023-03-03T23:27:13.460Z,98424.58
2023-03-03T23:29:42.549Z,98419.61
2023-03-03T23:32:11.094Z,98417.79
2023-03-03T23:34:40.839Z,98418.96
2023-03-03T23:37:09.257Z,98418.85
2023-03-03T23:39:37.659Z,98419.45
2023-03-03T23:42:06.792Z,98412.26
2023-03-03T23:44:35.255Z,98402.42
2023-03-03T23:47:07.934Z,98403.41
2023-03-03T23:49:39.920Z,98397.56
2023-03-03T23:52:08.774Z,98393.30
2023-03-03T23:54:38.139Z,98384.01
2023-03-03T23:57:08.371Z,98380.60
2023-03-03T23:59:36.848Z,98375.36
